No data was retrieved for https://query.yahooapis.com/v1/public/yql?q=select+%2A+from+weather.forecast+where+woeid%3D860853&format=xml&u=c

Snow/Ice From: 13-12-2019 13:00 Until: 14-12-2019 19:00 warning for: Snow/Ice Level: Yellow info button


warning for Snow/Ice more information rain snow radar


Visit our other weather sites:

Template documentation
and downloads

And another site



Nearby METAR Reports

   
EBAW - Antwerp
Updated: 13-12-2019 07:50
Light Rain, Mostly Cloudy  
Light Rain, Mostly Cloudy  
   Wind: South 2.1 m/s
Wind: South 2.1 m/s
Temperature: 6°C
Wind Chill: 4°C
Dew Point: 5°C
Humidity: 93%
Barometer: 970 hPa
Clouds: Mostly Cloudy
Visibility: More than 10 km
Cloud details: Few Clouds 700 ft,
Mostly Cloudy 900 ft
EBAW 130650Z 19004KT 150V230 9999 -RA FEW007 BKN009 06/05 Q0970 NOSIG
EBLG - Liège
Updated: 13-12-2019 07:50
Light Rain, Mostly Cloudy  
Light Rain, Mostly Cloudy  
   Wind: South 5.1 m/s
Wind: South 5.1 m/s
Temperature: 5°C
Wind Chill: 1°C
Dew Point: 3°C
Humidity: 87%
Barometer: 972 hPa
Clouds: Mostly Cloudy
Visibility: More than 10 km
Cloud details: Few Clouds 800 ft,
Mostly Cloudy 1300 ft,
Mostly Cloudy 1800 ft
EBLG 130650Z 18010KT 9999 -RA FEW008 BKN013 BKN018 05/03 Q0972 TEMPO 4000 RA BKN010
EBCV - Mons/Bergen
Updated: 12-12-2019 15:55
NOT Current
  
  
   Wind: South 9.3 m/s
Wind: South 9.3 m/s
Temperature: 5°C
Wind Chill: 0°C
Dew Point: 2°C
Humidity: 81%
Barometer: 996 hPa
EBCV 121455Z AUTO 17018KT //// /// 05/02 Q0996
EHBK - Maastricht
Updated: 13-12-2019 07:55
Light Drizzle, Overcast  
Light Drizzle, Overcast  
   Wind: South 6.2 m/s
Wind: South 6.2 m/s
Temperature: 5°C
Wind Chill: 1°C
Dew Point: 3°C
Humidity: 87%
Barometer: 972 hPa
Clouds: Overcast
Visibility: More than 10 km
Cloud details: Partly Cloudy 1400 ft,
Mostly Cloudy 1700 ft,
Overcast 2000 ft
EHBK 130655Z AUTO 19012KT 160V220 9999 -DZ SCT014 BKN017 OVC020 05/03 Q0972 REDZ TEMPO 4000 RADZ
ELLX - Luxemburg
Updated: 13-12-2019 07:50
Rain, Mostly Cloudy  
Rain, Mostly Cloudy  
   Wind: South 5.1 m/s
Wind: South 5.1 m/s
Temperature: 3°C
Wind Chill: -1°C
Dew Point: 3°C
Humidity: 100%
Barometer: 974 hPa
Clouds: Mostly Cloudy
Visibility: More than 10 km
Cloud details: Partly Cloudy 200 ft,
Mostly Cloudy 400 ft
ELLX 130650Z 18010KT 150V210 9999 RA SCT002 BKN004 03/03 Q0974 BECMG -RA
EBOS - Oostende
Updated: 13-12-2019 07:50
Light Rain, Mostly Cloudy  
Light Rain, Mostly Cloudy  
   Wind: WNW 7.2 m/s
Wind: WNW 7.2 m/s
Temperature: 7°C
Wind Chill: 3°C
Dew Point: 5°C
Humidity: 87%
Barometer: 970 hPa
Clouds: Mostly Cloudy
Visibility: More than 10 km
Cloud details: Few Clouds 1000 ft,
Partly Cloudy 1500 ft,
Mostly Cloudy 2400 ft
EBOS 130650Z 29014KT 9999 -RA FEW010 SCT015 BKN024 07/05 Q0970 NOSIG

Script developed by  Saratoga-weather.org Adapted for the template by  Weerstation Leuven

You find our weather info also at:

Weather Underground

Equipment we use:

Weather-station
Davis Vantage Vue

Weather-program
WeatherCat

Provider
one.com

Davis Vantage Vue

WeatherCat

one.com